createdAt,value
2016-11-09T10:54:37.613Z,3372
2016-11-09T11:04:20.496Z,4036
2016-11-09T11:04:52.815Z,4180
2016-11-09T11:05:25.946Z,4216
2016-11-09T11:05:58.282Z,4204
2016-11-09T11:06:30.599Z,4124
2016-11-09T11:07:47.357Z,3996
2016-11-09T11:09:35.305Z,4284
2016-11-09T11:24:27.581Z,4732
2016-11-09T11:24:59.913Z,4836
2016-11-09T11:25:32.223Z,4672
2016-11-09T11:26:04.563Z,4800
2016-11-09T11:26:36.891Z,4860
2016-11-09T11:27:09.232Z,4964
2016-11-09T11:27:41.563Z,4884
2016-11-09T11:28:13.904Z,4828
2016-11-09T11:28:46.215Z,4756
2016-11-09T11:29:18.532Z,4788
2016-11-09T11:29:50.855Z,4876
2016-11-09T11:30:23.186Z,4836
2016-11-09T11:30:55.506Z,4656
2016-11-09T11:31:27.837Z,4632
2016-11-09T11:32:00.244Z,4632
2016-11-09T11:32:32.552Z,4568
2016-11-09T11:33:04.866Z,4600
2016-11-09T11:33:37.198Z,4588
2016-11-09T11:34:09.541Z,4452
2016-11-09T11:34:42.895Z,4436
2016-11-09T11:35:16.516Z,4504
2016-11-09T11:35:49.031Z,4468
2016-11-09T11:36:21.928Z,4428
2016-11-09T11:36:54.317Z,4384
2016-11-09T11:37:26.635Z,4364
2016-11-09T11:37:58.961Z,4344
2016-11-09T11:38:31.876Z,4368
2016-11-09T11:39:04.201Z,4304
2016-11-09T11:39:36.558Z,4144
2016-11-09T11:40:08.911Z,4272
2016-11-09T11:40:41.242Z,4220
2016-11-09T11:41:13.594Z,4360
2016-11-09T11:41:45.940Z,4400
2016-11-09T11:42:18.275Z,4512
2016-11-09T11:42:50.602Z,4564
2016-11-09T11:43:22.945Z,4480
2016-11-09T11:43:55.266Z,4608
2016-11-09T11:44:27.605Z,4692
2016-11-09T11:45:00.110Z,4956
2016-11-09T11:45:32.451Z,5076
2016-11-09T11:46:04.805Z,5168
2016-11-09T11:46:37.125Z,5308
2016-11-09T11:47:09.445Z,5388
2016-11-09T11:47:43.095Z,5412
2016-11-09T11:48:15.404Z,5496
2016-11-09T11:48:48.595Z,5716
2016-11-09T11:49:21.331Z,5664
2016-11-09T11:49:53.655Z,5804
2016-11-09T11:50:26.833Z,6204
2016-11-09T11:51:01.318Z,6364
2016-11-09T11:51:34.769Z,6524
2016-11-09T11:52:07.355Z,6868
2016-11-09T11:52:39.685Z,7360
2016-11-09T11:53:12.004Z,7428
2016-11-09T11:53:44.333Z,8212
2016-11-09T11:54:18.381Z,8556
2016-11-09T11:54:52.063Z,8692
2016-11-09T11:55:24.689Z,8696
2016-11-09T11:55:57.028Z,8684
2016-11-09T11:56:29.351Z,9004
2016-11-09T11:57:01.669Z,7188
2016-11-09T11:57:34.652Z,6880
2016-11-09T11:58:06.988Z,7844
2016-11-09T11:58:39.331Z,8688
2016-11-09T11:59:11.658Z,8920
2016-11-09T11:59:45.184Z,8880
2016-11-09T12:00:17.545Z,8688
2016-11-09T12:00:49.866Z,8660
2016-11-09T12:01:22.186Z,7984
2016-11-09T12:01:54.731Z,9184
2016-11-09T12:02:27.196Z,9104
2016-11-09T12:02:59.538Z,9676
2016-11-09T12:03:31.876Z,8168
2016-11-09T12:04:04.205Z,6368
2016-11-09T12:04:36.524Z,6084
2016-11-09T12:05:08.824Z,5940
2016-11-09T12:05:41.145Z,6660
2016-11-09T12:06:13.475Z,5676
2016-11-09T12:06:46.797Z,5452
2016-11-09T12:07:19.248Z,5284
2016-11-09T12:07:52.540Z,5208
2016-11-09T12:08:24.887Z,5376
2016-11-09T12:08:57.221Z,5152
2016-11-09T12:09:29.541Z,4576
2016-11-09T12:10:01.876Z,4204
2016-11-09T12:10:34.209Z,3932
2016-11-09T12:11:06.522Z,3784
2016-11-09T12:11:38.838Z,3836
2016-11-09T12:12:11.214Z,3684
2016-11-09T12:12:43.528Z,3716
2016-11-09T12:13:15.843Z,3860
2016-11-09T12:13:48.310Z,4032
2016-11-09T12:14:20.754Z,4460
2016-11-09T12:14:53.084Z,4940
2016-11-09T12:15:25.438Z,6396
2016-11-09T12:15:57.745Z,5668
2016-11-09T12:16:30.069Z,6428
2016-11-09T12:17:02.396Z,5016
2016-11-09T12:17:34.727Z,4804
2016-11-09T12:18:07.105Z,4708
2016-11-09T12:18:39.428Z,4812
2016-11-09T12:19:11.762Z,5300
2016-11-09T12:19:44.097Z,4660
2016-11-09T12:20:16.413Z,4444
2016-11-09T12:20:48.755Z,4232
2016-11-09T12:21:21.114Z,3964
2016-11-09T12:21:55.896Z,3736
2016-11-09T12:22:28.219Z,3584
2016-11-09T12:23:00.531Z,3560
2016-11-09T12:23:32.859Z,3628
2016-11-09T12:24:05.199Z,3892
2016-11-09T12:24:37.528Z,5316
2016-11-09T12:25:09.907Z,6784
2016-11-09T12:25:42.220Z,7656
2016-11-09T12:26:14.580Z,5620
2016-11-09T12:26:46.901Z,8328
2016-11-09T12:27:19.826Z,8996
2016-11-09T12:27:52.171Z,8504
2016-11-09T12:28:26.867Z,5504
2016-11-09T12:28:59.241Z,6456
2016-11-09T12:29:31.584Z,5680
2016-11-09T12:30:03.914Z,5300
2016-11-09T12:30:36.252Z,5200
2016-11-09T12:31:08.560Z,5240
2016-11-09T12:31:40.844Z,4864
2016-11-09T12:32:13.139Z,4416
2016-11-09T12:32:45.460Z,3940
2016-11-09T12:33:17.795Z,3852
2016-11-09T12:33:50.130Z,3584
2016-11-09T12:34:22.459Z,3376
2016-11-09T12:34:54.794Z,2912
2016-11-09T12:35:27.128Z,2768
2016-11-09T12:35:59.484Z,2624
2016-11-09T12:36:31.792Z,2492
2016-11-09T12:37:04.108Z,2380
2016-11-09T12:37:36.438Z,2268
2016-11-09T12:38:08.757Z,2140
2016-11-09T12:38:41.124Z,2012
2016-11-09T12:39:13.985Z,1884
2016-11-09T12:39:46.320Z,1752
2016-11-09T12:40:18.646Z,1680
2016-11-09T12:40:50.979Z,1588
2016-11-09T12:41:23.341Z,1428
2016-11-09T12:41:55.670Z,1340
2016-11-09T12:42:28.010Z,1264
2016-11-09T12:43:00.335Z,1224
2016-11-09T12:43:32.652Z,1212
2016-11-09T12:44:04.975Z,1212
2016-11-09T12:44:37.303Z,1208
2016-11-09T12:45:09.625Z,1184
2016-11-09T12:45:41.947Z,1160
2016-11-09T12:46:14.267Z,1152
2016-11-09T12:46:46.575Z,1156
2016-11-09T12:47:18.889Z,1164
2016-11-09T12:47:51.214Z,1156
2016-11-09T12:48:23.571Z,1156
2016-11-09T12:48:55.887Z,1176
2016-11-09T12:49:28.216Z,1228
2016-11-09T12:50:00.529Z,1300
2016-11-09T12:50:32.929Z,1388
2016-11-09T12:51:05.256Z,1504
2016-11-09T12:51:37.552Z,1616
2016-11-09T12:52:09.877Z,1720
2016-11-09T12:52:42.203Z,1828
2016-11-09T12:53:14.521Z,1940
2016-11-09T12:53:47.021Z,2044
2016-11-09T12:54:19.393Z,2180
2016-11-09T12:54:51.854Z,2228
2016-11-09T12:55:24.185Z,2296
2016-11-09T12:55:56.507Z,2220
2016-11-09T12:56:28.833Z,2196
2016-11-09T12:57:01.162Z,2224
2016-11-09T12:57:33.485Z,2280
2016-11-09T12:58:05.799Z,2272
2016-11-09T12:58:38.124Z,2244
2016-11-09T12:59:10.523Z,2256
2016-11-09T12:59:43.336Z,2276
2016-11-09T13:00:15.666Z,2272
2016-11-09T13:00:47.987Z,2276
2016-11-09T13:01:20.420Z,2300
2016-11-09T13:01:52.895Z,2344
2016-11-09T13:02:25.239Z,2384
2016-11-09T13:02:57.587Z,2384
2016-11-09T13:03:29.916Z,2356
2016-11-09T13:04:02.237Z,2284
2016-11-09T13:04:34.562Z,2244
2016-11-09T13:05:06.872Z,2204
2016-11-09T13:05:39.183Z,2188
2016-11-09T13:06:11.490Z,2184
2016-11-09T13:06:43.825Z,2180
2016-11-09T13:07:16.134Z,2192
2016-11-09T13:07:48.607Z,2204
2016-11-09T13:08:21.678Z,2216
2016-11-09T13:08:54.021Z,2224
2016-11-09T13:09:26.347Z,2224
2016-11-09T13:09:58.664Z,2212
2016-11-09T13:10:31.200Z,2200
2016-11-09T13:11:03.843Z,2156
2016-11-09T13:11:36.153Z,2104
2016-11-09T13:12:08.473Z,2040
2016-11-09T13:12:40.785Z,1964
2016-11-09T13:13:13.116Z,1884
2016-11-09T13:13:45.449Z,1824
2016-11-09T13:14:17.762Z,1780
2016-11-09T13:14:50.088Z,1744
2016-11-09T13:15:22.408Z,1716
2016-11-09T13:15:54.734Z,1696
2016-11-09T13:16:27.971Z,1664
2016-11-09T13:17:00.271Z,1612
2016-11-09T13:17:32.584Z,1560
2016-11-09T13:18:04.908Z,1492
2016-11-09T13:18:37.555Z,1416
2016-11-09T13:19:13.543Z,1352
2016-11-09T13:19:45.891Z,1308
2016-11-09T13:20:21.560Z,1268
2016-11-09T13:20:54.924Z,1276
2016-11-09T13:21:32.559Z,1336
2016-11-09T13:22:05.840Z,1404
2016-11-09T13:22:39.953Z,1448
2016-11-09T13:23:13.718Z,1468
2016-11-09T13:23:50.062Z,1468
2016-11-09T13:24:24.503Z,1448
2016-11-09T13:24:59.026Z,1412
2016-11-09T13:25:32.515Z,1372
2016-11-09T13:26:06.714Z,1340
2016-11-09T13:26:40.635Z,1352
2016-11-09T13:29:06.631Z,1456
2016-11-09T13:29:39.092Z,1524
2016-11-09T13:30:11.388Z,1524
2016-11-09T13:30:43.743Z,1520
2016-11-09T13:31:16.108Z,1504
2016-11-09T13:31:48.450Z,1476
2016-11-09T13:32:21.170Z,1452
2016-11-09T13:32:54.053Z,1432
2016-11-09T13:33:28.060Z,1408
2016-11-09T13:34:03.037Z,1384
2016-11-09T13:34:38.482Z,1364
2016-11-09T13:35:12.667Z,1348
2016-11-09T13:35:48.405Z,1348
2016-11-09T13:36:23.868Z,1372
2016-11-09T13:37:01.774Z,1412
2016-11-09T13:37:40.296Z,1456
2016-11-09T13:38:13.861Z,1484
2016-11-09T13:38:50.553Z,1492
2016-11-09T13:39:26.805Z,1488
2016-11-09T13:40:03.791Z,1464
2016-11-09T13:40:44.802Z,1424
2016-11-09T13:41:23.312Z,1384
2016-11-09T13:42:03.295Z,1332
2016-11-09T13:42:35.922Z,1288
2016-11-09T13:43:08.633Z,1252
2016-11-09T13:43:41.666Z,1216
2016-11-09T13:44:14.012Z,1176
2016-11-09T13:44:46.424Z,1128
2016-11-09T13:45:20.268Z,1080
2016-11-09T13:45:52.576Z,1036
2016-11-09T13:46:26.727Z,1008
2016-11-09T13:46:59.026Z,980
2016-11-09T13:47:31.344Z,960
2016-11-09T13:48:04.235Z,944
2016-11-09T13:48:37.450Z,936
2016-11-09T13:49:09.902Z,932
2016-11-09T13:49:42.279Z,932
2016-11-09T13:50:14.664Z,936
2016-11-09T13:50:46.983Z,932
2016-11-09T13:51:19.603Z,940
2016-11-09T13:51:51.949Z,952
2016-11-09T13:52:24.353Z,968
2016-11-09T13:52:58.314Z,968
2016-11-09T13:53:30.919Z,964
2016-11-09T13:54:03.603Z,952
2016-11-09T13:54:35.921Z,948
2016-11-09T13:55:08.248Z,932
2016-11-09T13:55:40.896Z,904
2016-11-09T13:56:13.263Z,868
2016-11-09T13:56:45.634Z,832
2016-11-09T13:57:17.995Z,792
2016-11-09T13:57:50.694Z,756
2016-11-09T13:58:23.536Z,716
2016-11-09T13:58:57.804Z,680
2016-11-09T13:59:30.239Z,652
2016-11-09T14:00:02.575Z,620
2016-11-09T14:00:37.320Z,584
2016-11-09T14:01:09.825Z,556
2016-11-09T14:01:42.318Z,540
2016-11-09T14:02:15.341Z,532
2016-11-09T14:02:48.777Z,532
2016-11-09T14:03:21.147Z,540
2016-11-09T14:03:53.459Z,552
2016-11-09T14:04:28.305Z,560
2016-11-09T14:05:03.823Z,556
2016-11-09T14:05:41.172Z,540
2016-11-09T14:06:18.319Z,524
2016-11-09T14:06:51.811Z,512
2016-11-09T14:07:29.022Z,492
2016-11-09T14:08:05.813Z,472
2016-11-09T14:08:41.018Z,448
2016-11-09T14:09:17.527Z,424
2016-11-09T14:09:54.315Z,404
2016-11-09T14:10:40.695Z,372
2016-11-09T14:11:15.512Z,360
2016-11-09T14:11:50.418Z,340
2016-11-09T14:12:23.917Z,320
2016-11-09T14:12:56.222Z,304
2016-11-09T14:13:29.692Z,296
2016-11-09T14:14:02.136Z,280
2016-11-09T14:14:35.291Z,272
2016-11-09T14:15:07.605Z,280
2016-11-09T14:15:39.906Z,284
2016-11-09T14:16:14.135Z,292
2016-11-09T14:16:54.924Z,300
2016-11-09T14:17:31.926Z,304
2016-11-09T14:18:07.580Z,300
2016-11-09T14:18:41.113Z,296
2016-11-09T14:19:16.416Z,292
2016-11-09T14:19:52.908Z,288
2016-11-09T14:20:29.800Z,292
2016-11-09T14:21:06.908Z,288
2016-11-09T14:21:43.246Z,288
2016-11-09T14:22:21.923Z,288
2016-11-09T14:22:59.027Z,292
2016-11-09T14:23:35.414Z,296
2016-11-09T14:24:12.641Z,292
2016-11-09T14:24:48.474Z,296
2016-11-09T14:25:23.607Z,292
2016-11-09T14:25:58.113Z,288
2016-11-09T14:26:32.430Z,280
2016-11-09T14:27:07.920Z,268
2016-11-09T14:27:47.170Z,256
2016-11-09T14:28:22.852Z,248
2016-11-09T14:28:58.154Z,240
2016-11-09T14:29:34.392Z,232
2016-11-09T14:30:08.886Z,224
2016-11-09T14:30:42.505Z,220
2016-11-09T14:31:17.382Z,212
2016-11-09T14:31:55.918Z,208
2016-11-09T14:32:32.449Z,204
2016-11-09T14:33:06.268Z,208
2016-11-09T14:33:40.578Z,212
2016-11-09T14:34:14.330Z,208
2016-11-09T14:34:49.429Z,212
2016-11-09T14:35:24.545Z,208
2016-11-09T14:36:00.213Z,212
2016-11-09T14:36:34.316Z,216
2016-11-09T14:37:08.691Z,220
2016-11-09T14:37:43.885Z,228
2016-11-09T14:38:18.762Z,228
2016-11-09T14:38:55.917Z,228
2016-11-09T14:39:30.421Z,224
2016-11-09T14:40:06.686Z,220
2016-11-09T14:40:47.940Z,224
2016-11-09T14:41:26.532Z,224
2016-11-09T14:42:02.159Z,224
2016-11-09T14:42:36.651Z,228
2016-11-09T14:43:11.768Z,228
2016-11-09T14:43:45.505Z,228
2016-11-09T14:44:19.105Z,232
2016-11-09T14:44:56.690Z,236
2016-11-09T14:45:30.201Z,236
2016-11-09T14:46:03.937Z,236
2016-11-09T14:46:36.256Z,236
2016-11-09T14:47:08.576Z,236
2016-11-09T14:47:40.906Z,236
2016-11-09T14:48:13.230Z,232
2016-11-09T14:48:45.590Z,232
2016-11-09T14:49:17.928Z,228
2016-11-09T14:49:50.281Z,228
2016-11-09T14:50:22.599Z,228
2016-11-09T14:50:54.936Z,224
2016-11-09T14:51:27.297Z,224
2016-11-09T14:51:59.621Z,224
2016-11-09T14:52:31.946Z,220
2016-11-09T14:53:04.277Z,216
2016-11-09T14:53:36.609Z,212
2016-11-09T14:54:08.939Z,208
2016-11-09T14:54:41.268Z,204
2016-11-09T14:55:13.591Z,196
2016-11-09T14:55:45.926Z,200
2016-11-09T14:56:18.293Z,196
2016-11-09T14:56:50.615Z,192
2016-11-09T14:57:22.936Z,192
2016-11-09T14:57:55.276Z,196
2016-11-09T14:58:27.587Z,192
2016-11-09T14:58:59.923Z,192
2016-11-09T14:59:32.246Z,188
2016-11-09T15:00:04.561Z,184
2016-11-09T15:00:36.922Z,180
2016-11-09T15:01:09.253Z,176
2016-11-09T15:01:41.584Z,176
2016-11-09T15:02:13.898Z,172
2016-11-09T15:02:46.216Z,168
2016-11-09T15:03:18.560Z,164
2016-11-09T15:03:51.908Z,160
2016-11-09T15:04:24.238Z,160
2016-11-09T15:04:56.567Z,152
2016-11-09T15:05:28.880Z,148
2016-11-09T15:06:01.205Z,144
2016-11-09T15:06:33.550Z,140
2016-11-09T15:07:05.899Z,136
2016-11-09T15:07:38.217Z,136
2016-11-09T15:08:10.579Z,132
2016-11-09T15:08:42.906Z,128
2016-11-09T15:09:15.233Z,128
2016-11-09T15:09:47.563Z,124
2016-11-09T15:10:19.960Z,120
2016-11-09T15:10:52.281Z,116
2016-11-09T15:11:24.612Z,116
2016-11-09T15:11:56.937Z,112
2016-11-09T15:12:29.257Z,108
2016-11-09T15:13:01.589Z,104
2016-11-09T15:13:33.918Z,100
2016-11-09T15:14:06.253Z,96
2016-11-09T15:14:38.566Z,96
2016-11-09T15:15:10.895Z,92
2016-11-09T15:15:43.254Z,92
2016-11-09T15:16:15.573Z,88
2016-11-09T15:16:47.902Z,88
2016-11-09T15:17:20.228Z,84
2016-11-09T15:17:52.559Z,80
2016-11-09T15:18:28.946Z,80
2016-11-09T15:19:01.279Z,80
2016-11-09T15:19:33.617Z,80
2016-11-09T15:20:05.958Z,72
2016-11-09T15:20:38.296Z,72
2016-11-09T15:21:10.627Z,72
2016-11-09T15:21:42.962Z,68
2016-11-09T15:22:15.296Z,64
2016-11-09T15:22:47.616Z,60
2016-11-09T15:23:19.948Z,60
2016-11-09T15:23:52.276Z,56
2016-11-09T15:24:24.599Z,56
2016-11-09T15:24:56.957Z,56
2016-11-09T15:25:29.297Z,52
2016-11-09T15:26:01.618Z,52
2016-11-09T15:26:33.974Z,52
2016-11-09T15:27:06.297Z,48
2016-11-09T15:27:38.607Z,48
2016-11-09T15:28:10.921Z,48
2016-11-09T15:28:43.247Z,44
2016-11-09T15:29:15.589Z,44
2016-11-09T15:29:47.911Z,40
2016-11-09T15:30:20.239Z,40
2016-11-09T15:30:52.563Z,36
2016-11-09T15:31:24.878Z,36
2016-11-09T15:31:57.195Z,36
2016-11-09T15:32:29.552Z,32
2016-11-09T15:33:01.896Z,32
2016-11-09T15:33:34.205Z,28
2016-11-09T15:34:06.537Z,28
2016-11-09T15:34:38.871Z,24
2016-11-09T15:35:11.177Z,28
2016-11-09T15:35:43.497Z,24
2016-11-09T15:36:15.830Z,24
2016-11-09T15:36:48.827Z,24
2016-11-09T15:37:22.356Z,24
2016-11-09T15:37:55.107Z,24
2016-11-09T15:38:27.454Z,24
2016-11-09T15:38:59.774Z,24
2016-11-09T15:39:32.114Z,24
2016-11-09T15:40:05.337Z,24
2016-11-09T15:40:38.460Z,20
2016-11-09T15:41:11.014Z,24
2016-11-09T15:41:43.339Z,24
2016-11-09T15:42:16.570Z,20
2016-11-09T15:42:50.174Z,20
2016-11-09T15:43:23.788Z,20
2016-11-09T15:43:57.453Z,20
2016-11-09T15:44:31.096Z,20
2016-11-09T15:45:04.602Z,20
2016-11-09T15:45:37.395Z,16
2016-11-09T15:46:09.811Z,16
2016-11-09T15:46:42.131Z,16
2016-11-09T15:47:14.468Z,16
2016-11-09T15:47:46.783Z,16
2016-11-09T15:48:19.111Z,12
2016-11-09T15:48:51.434Z,12
2016-11-09T15:49:23.762Z,12
2016-11-09T15:49:57.034Z,12
2016-11-09T15:50:30.670Z,12
2016-11-09T15:51:04.094Z,8
2016-11-09T15:51:36.847Z,8
2016-11-09T15:52:09.200Z,8
2016-11-09T15:52:41.566Z,8
2016-11-09T15:53:13.890Z,8
2016-11-09T15:53:46.222Z,4
2016-11-09T15:54:19.426Z,4
2016-11-09T15:54:52.322Z,8
2016-11-09T15:55:24.730Z,8
2016-11-09T15:55:57.093Z,4
2016-11-09T15:56:30.322Z,4
2016-11-09T15:57:03.462Z,4
2016-11-09T15:57:35.917Z,4
2016-11-09T15:58:08.294Z,4
2016-11-09T15:58:41.689Z,0
2016-11-09T15:59:14.478Z,0
2016-11-09T15:59:46.907Z,4
2016-11-09T16:00:19.229Z,4
2016-11-09T16:00:51.553Z,4
2016-11-09T16:01:23.871Z,4
2016-11-09T16:01:56.207Z,4
2016-11-09T16:02:28.537Z,4
2016-11-09T16:03:00.857Z,0
2016-11-09T16:03:33.187Z,0
2016-11-09T16:04:06.408Z,0
2016-11-09T16:04:40.005Z,0
2016-11-09T16:05:13.588Z,0
2016-11-09T16:05:46.740Z,0
2016-11-09T16:06:19.191Z,0
2016-11-09T16:06:52.325Z,0
2016-11-09T16:07:25.051Z,0
2016-11-09T16:07:57.412Z,0
2016-11-09T16:08:29.736Z,0
2016-11-09T16:09:02.069Z,0
2016-11-09T16:09:35.207Z,0
2016-11-09T16:10:08.843Z,0
2016-11-09T16:10:42.314Z,0
2016-11-09T16:11:16.227Z,0
2016-11-09T16:11:48.602Z,0
2016-11-09T16:12:20.923Z,0
2016-11-09T16:12:53.239Z,0
2016-11-09T16:13:25.564Z,0
2016-11-09T16:13:57.889Z,0
2016-11-09T16:14:30.209Z,0
2016-11-09T16:15:02.549Z,0
2016-11-09T16:15:34.873Z,0
2016-11-09T16:16:07.196Z,0
2016-11-09T16:16:39.512Z,0
2016-11-09T16:17:11.981Z,0
2016-11-09T16:17:45.265Z,0
2016-11-09T16:18:18.875Z,0
2016-11-09T16:18:53.136Z,0
2016-11-09T16:19:26.725Z,0
2016-11-09T16:20:00.346Z,0
2016-11-09T16:20:33.916Z,0
2016-11-09T16:21:07.559Z,0
2016-11-09T16:21:41.174Z,0
2016-11-09T16:22:14.832Z,0
2016-11-09T16:22:49.187Z,0
2016-11-09T16:23:22.807Z,0
2016-11-09T16:23:56.435Z,0
2016-11-09T16:24:30.066Z,0
2016-11-09T16:25:04.670Z,0
2016-11-09T16:25:38.278Z,0
2016-11-09T16:26:11.912Z,0
2016-11-09T16:26:45.549Z,0
2016-11-09T16:27:19.174Z,0
2016-11-09T16:27:52.795Z,0
2016-11-09T16:28:26.420Z,0
2016-11-09T16:29:00.048Z,0
2016-11-09T16:29:33.691Z,0
2016-11-09T16:30:07.259Z,0
2016-11-09T16:30:40.914Z,0
2016-11-09T16:31:14.560Z,0
2016-11-09T16:31:48.187Z,0
2016-11-09T16:32:21.806Z,0
2016-11-09T16:32:55.412Z,0
2016-11-09T16:33:28.988Z,0
2016-11-09T16:34:02.559Z,0
2016-11-09T16:34:35.645Z,0
2016-11-09T16:35:08.286Z,0
2016-11-09T16:35:40.735Z,0
2016-11-09T16:36:13.078Z,0
2016-11-09T16:36:45.399Z,0
2016-11-09T16:37:17.727Z,0
2016-11-09T16:37:50.044Z,0
2016-11-09T16:38:22.442Z,0
2016-11-09T16:38:54.791Z,0
2016-11-09T16:39:27.130Z,0
2016-11-09T16:39:59.500Z,0
2016-11-09T16:40:31.821Z,0
2016-11-09T16:41:04.332Z,0
2016-11-09T16:41:36.658Z,0
2016-11-09T16:42:08.989Z,0
2016-11-09T16:42:41.319Z,0
2016-11-09T16:43:13.643Z,0
2016-11-09T16:43:45.970Z,0
2016-11-09T16:44:18.301Z,0
2016-11-09T16:44:50.632Z,0
2016-11-09T16:45:22.960Z,0
2016-11-09T16:45:55.281Z,0
2016-11-09T16:46:27.606Z,0
2016-11-09T16:46:59.934Z,0
2016-11-09T16:47:32.267Z,0
2016-11-09T16:48:04.637Z,0
2016-11-09T16:48:36.940Z,0
2016-11-09T16:49:09.264Z,0
2016-11-09T16:49:41.572Z,0
2016-11-09T16:50:13.887Z,0
2016-11-09T16:50:46.240Z,0
2016-11-09T16:51:18.564Z,0
2016-11-09T16:51:50.922Z,0
2016-11-09T16:52:28.540Z,0
2016-11-09T16:53:02.376Z,0
2016-11-09T16:53:34.695Z,0
2016-11-09T16:54:07.014Z,0
2016-11-09T16:54:39.358Z,0
2016-11-09T16:55:11.681Z,0
2016-11-09T16:55:44.007Z,0
2016-11-09T16:56:16.327Z,0
2016-11-09T16:56:48.656Z,0
2016-11-09T16:57:20.990Z,0
2016-11-09T16:57:53.323Z,0
2016-11-09T16:58:25.672Z,0
2016-11-09T16:58:57.978Z,0
2016-11-09T16:59:30.313Z,0
2016-11-09T17:00:02.633Z,0
2016-11-09T17:00:34.961Z,0
2016-11-09T17:01:07.289Z,0
2016-11-09T17:01:39.609Z,0
2016-11-09T17:02:11.930Z,0
2016-11-09T17:02:44.260Z,0
2016-11-09T17:03:16.590Z,0
2016-11-09T17:03:48.905Z,0
2016-11-09T17:04:21.241Z,0
2016-11-09T17:04:53.562Z,0
2016-11-09T17:05:25.882Z,0
2016-11-09T17:05:58.207Z,0
2016-11-09T17:06:30.533Z,0
2016-11-09T17:07:02.851Z,0
2016-11-09T17:07:35.170Z,0
2016-11-09T17:08:07.491Z,0
2016-11-09T17:08:39.816Z,0
2016-11-09T17:09:12.154Z,0
2016-11-09T17:09:44.478Z,0
2016-11-09T17:10:16.813Z,0
2016-11-09T17:10:49.154Z,0
2016-11-09T17:11:21.472Z,0
2016-11-09T17:11:53.812Z,0
2016-11-09T17:12:26.178Z,0
2016-11-09T17:12:58.499Z,0
2016-11-09T17:13:30.847Z,0
2016-11-09T17:14:03.165Z,0
2016-11-09T17:14:35.475Z,0
2016-11-09T17:15:07.783Z,0
2016-11-09T17:15:40.111Z,0
2016-11-09T17:16:12.437Z,0
2016-11-09T17:16:44.799Z,0
2016-11-09T17:17:17.121Z,0
2016-11-09T17:17:49.451Z,0
2016-11-09T17:18:21.772Z,0
2016-11-09T17:18:54.094Z,0
2016-11-09T17:19:26.417Z,0
2016-11-09T17:19:58.742Z,0
2016-11-09T17:20:31.057Z,0
2016-11-09T17:21:03.425Z,0
2016-11-09T17:21:35.750Z,0
2016-11-09T17:22:08.079Z,0
2016-11-09T17:22:40.431Z,0
2016-11-09T17:23:12.763Z,0
2016-11-09T17:23:45.122Z,0
2016-11-09T17:24:17.454Z,0
2016-11-09T17:24:49.803Z,0
2016-11-09T17:25:22.132Z,0
2016-11-09T17:25:54.455Z,0
2016-11-09T17:26:26.763Z,0
2016-11-09T17:26:59.096Z,0
2016-11-09T17:27:31.439Z,0
2016-11-09T17:28:03.760Z,0
2016-11-09T17:28:36.100Z,0
2016-11-09T17:29:08.429Z,0
2016-11-09T17:29:40.745Z,0
2016-11-09T17:30:13.069Z,0
2016-11-09T17:30:45.399Z,0
2016-11-09T17:31:17.748Z,0
2016-11-09T17:31:50.117Z,0
2016-11-09T17:32:22.436Z,0
2016-11-09T17:32:54.759Z,0
2016-11-09T17:33:27.081Z,0
2016-11-09T17:33:59.415Z,0
2016-11-09T17:34:31.737Z,0
2016-11-09T17:35:04.060Z,0
2016-11-09T17:35:36.391Z,0
2016-11-09T17:36:08.708Z,0
2016-11-09T17:36:41.022Z,0
2016-11-09T17:37:13.343Z,0
2016-11-09T17:37:45.672Z,0
2016-11-09T17:38:17.995Z,0
2016-11-09T17:38:50.342Z,0
2016-11-09T17:39:22.666Z,0
2016-11-09T17:39:55.045Z,0
2016-11-09T17:40:27.382Z,0
2016-11-09T17:40:59.720Z,0
2016-11-09T17:41:32.881Z,0
2016-11-09T17:42:05.322Z,0
2016-11-09T17:42:37.634Z,0
2016-11-09T17:43:09.959Z,0
2016-11-09T17:43:42.370Z,0
2016-11-09T17:44:14.694Z,0
2016-11-09T17:44:47.038Z,0
2016-11-09T17:45:19.369Z,0
2016-11-09T17:45:51.721Z,0
2016-11-09T17:46:24.042Z,0
2016-11-09T17:46:56.371Z,0
2016-11-09T17:47:28.689Z,0
2016-11-09T17:48:01.023Z,0
2016-11-09T17:48:33.349Z,0
2016-11-09T17:49:05.672Z,0
2016-11-09T17:49:37.999Z,0
2016-11-09T17:50:10.328Z,0
2016-11-09T17:50:42.655Z,0
2016-11-09T17:51:14.993Z,0
2016-11-09T17:51:47.331Z,0
2016-11-09T17:52:19.638Z,0
2016-11-09T17:52:51.998Z,0
2016-11-09T17:53:24.320Z,0
2016-11-09T17:53:56.681Z,0
2016-11-09T17:54:29.015Z,0
2016-11-09T17:55:01.347Z,0
2016-11-09T17:55:33.682Z,0
2016-11-09T17:56:06.012Z,0
2016-11-09T17:56:38.351Z,0
2016-11-09T17:57:10.667Z,0
2016-11-09T17:57:42.981Z,0
2016-11-09T17:58:15.311Z,0
2016-11-09T17:58:47.640Z,0
2016-11-09T17:59:19.975Z,0
2016-11-09T17:59:52.307Z,0
2016-11-09T18:00:24.636Z,0
2016-11-09T18:00:56.962Z,0
2016-11-09T18:01:29.278Z,0
2016-11-09T18:02:01.613Z,0
2016-11-09T18:02:33.965Z,0
2016-11-09T18:03:06.289Z,0
2016-11-09T18:03:38.620Z,0
2016-11-09T18:04:10.941Z,0
2016-11-09T18:04:43.268Z,0
2016-11-09T18:05:15.584Z,0
2016-11-09T18:05:47.911Z,0
2016-11-09T18:06:20.226Z,0
2016-11-09T18:06:52.551Z,0
2016-11-09T18:07:24.862Z,0
2016-11-09T18:07:57.187Z,0
2016-11-09T18:08:29.522Z,0
2016-11-09T18:09:01.848Z,0
2016-11-09T18:09:34.675Z,0
2016-11-09T18:10:08.129Z,0
2016-11-09T18:10:41.695Z,0
2016-11-09T18:11:15.295Z,0
2016-11-09T18:11:48.411Z,0
2016-11-09T18:12:20.969Z,0
2016-11-09T18:12:53.329Z,0
2016-11-09T18:13:25.700Z,0
2016-11-09T18:13:58.019Z,0
2016-11-09T18:14:30.374Z,0
2016-11-09T18:15:02.708Z,0
2016-11-09T18:15:35.092Z,0
2016-11-09T18:16:07.450Z,0
2016-11-09T18:16:39.776Z,0
2016-11-09T18:17:12.083Z,0
2016-11-09T18:17:44.402Z,0
2016-11-09T18:18:16.733Z,0
2016-11-09T18:18:49.065Z,0
2016-11-09T18:19:21.430Z,0
2016-11-09T18:19:53.758Z,0
2016-11-09T18:20:26.078Z,0
2016-11-09T18:20:58.419Z,0
2016-11-09T18:21:30.740Z,0
2016-11-09T18:22:03.698Z,0
2016-11-09T18:22:36.250Z,0
2016-11-09T18:23:08.576Z,0
2016-11-09T18:23:40.889Z,0
2016-11-09T18:24:13.226Z,0
2016-11-09T18:24:45.731Z,0
2016-11-09T18:25:18.040Z,0
2016-11-09T18:25:50.357Z,0
2016-11-09T18:26:22.682Z,0
2016-11-09T18:26:55.016Z,0
2016-11-09T18:27:27.342Z,0
2016-11-09T18:27:59.668Z,0
2016-11-09T18:28:31.984Z,0
2016-11-09T18:29:04.324Z,0
2016-11-09T18:29:36.646Z,0
2016-11-09T18:30:08.983Z,0
2016-11-09T18:30:41.305Z,0
2016-11-09T18:31:13.630Z,0
2016-11-09T18:31:45.964Z,0
2016-11-09T18:32:18.297Z,0
2016-11-09T18:32:50.616Z,0
2016-11-09T18:33:22.938Z,0
2016-11-09T18:33:55.256Z,0
2016-11-09T18:34:27.573Z,0
2016-11-09T18:34:59.894Z,0
2016-11-09T18:35:32.263Z,0
2016-11-09T18:36:04.582Z,0
2016-11-09T18:36:36.915Z,0
2016-11-09T18:37:09.235Z,0
2016-11-09T18:37:41.571Z,0
2016-11-09T18:38:13.945Z,0
2016-11-09T18:38:46.266Z,0
2016-11-09T18:39:18.590Z,0
2016-11-09T18:39:50.921Z,0
2016-11-09T18:40:23.244Z,0
2016-11-09T18:40:55.555Z,0
2016-11-09T18:41:27.884Z,0
2016-11-09T18:42:00.244Z,0
2016-11-09T18:42:32.555Z,0
2016-11-09T18:43:04.887Z,0
2016-11-09T18:43:37.219Z,0
2016-11-09T18:44:09.569Z,0
2016-11-09T18:44:41.899Z,0
2016-11-09T18:45:14.260Z,0
2016-11-09T18:45:46.581Z,0
2016-11-09T18:46:18.893Z,0
2016-11-09T18:46:51.215Z,0
2016-11-09T18:47:23.555Z,0
2016-11-09T18:47:55.881Z,0
2016-11-09T18:48:28.202Z,0
2016-11-09T18:49:00.533Z,0
2016-11-09T18:49:32.861Z,0
2016-11-09T18:50:05.177Z,0
2016-11-09T18:50:38.489Z,0
2016-11-09T18:51:10.820Z,0
2016-11-09T18:51:43.149Z,0
2016-11-09T18:52:15.501Z,0
2016-11-09T18:52:47.883Z,0
2016-11-09T18:53:20.240Z,0
2016-11-09T18:53:52.570Z,0
2016-11-09T18:54:24.900Z,0
2016-11-09T18:54:57.224Z,0
2016-11-09T18:55:29.556Z,0
2016-11-09T18:56:01.880Z,0
2016-11-09T18:56:34.188Z,0
2016-11-09T18:57:06.520Z,0
2016-11-09T18:57:38.889Z,0
2016-11-09T18:58:11.230Z,0
2016-11-09T18:58:43.568Z,0
2016-11-09T18:59:15.939Z,0
2016-11-09T18:59:48.282Z,0
2016-11-09T19:00:20.620Z,0
2016-11-09T19:00:52.990Z,0
2016-11-09T19:01:25.303Z,0
2016-11-09T19:01:57.617Z,0
2016-11-09T19:02:29.976Z,0
2016-11-09T19:03:02.296Z,0
2016-11-09T19:03:34.623Z,0
2016-11-09T19:04:06.950Z,0